Time;durP1;ratioP1;P1;durP2;ratioP2;P2;SDS_P1;SDS_P2;PMS_P1;PMS_P2;Temp;Humidity;BMP_temperature;BMP_pressure;BME280_temperature;BME280_humidity;BME280_pressure;Samples;Min_cycle;Max_cycle;Signal;HPM_P1;HPM_P2
2022/05/11 00:01:13;;;;;;;13.18;10.32;;;18.00;1.00;;;;;;7365646;19;20035;-65
2022/05/11 00:03:43;;;;;;;13.82;9.68;;;18.00;1.00;;;;;;7367606;19;20010;-64
2022/05/11 00:06:16;;;;;;;12.32;9.90;;;18.00;1.00;;;;;;7367836;19;20501;-65
2022/05/11 00:08:45;;;;;;;10.35;8.95;;;18.00;1.00;;;;;;7368702;19;20074;-63
2022/05/11 00:11:15;;;;;;;12.27;9.63;;;17.90;1.00;;;;;;7388283;19;20081;-64
2022/05/11 00:13:45;;;;;;;12.27;9.63;;;17.90;1.00;;;;;;7364709;19;20021;-64
2022/05/11 00:16:15;;;;;;;11.52;10.10;;;17.80;1.00;;;;;;7368419;19;20089;-64
2022/05/11 00:18:46;;;;;;;11.35;9.85;;;17.80;1.00;;;;;;7367212;19;20019;-64
2022/05/11 00:21:18;;;;;;;11.93;9.65;;;17.80;1.00;;;;;;7367553;19;20481;-64
2022/05/11 00:23:49;;;;;;;12.52;9.82;;;17.70;1.00;;;;;;7365955;19;20091;-64
2022/05/11 00:26:19;;;;;;;11.52;9.90;;;17.70;1.00;;;;;;7389911;19;20010;-65
2022/05/11 00:28:49;;;;;;;12.75;9.88;;;17.60;1.00;;;;;;7366377;19;20050;-65
2022/05/11 00:31:19;;;;;;;12.05;10.07;;;17.70;1.00;;;;;;7364638;19;20014;-64
2022/05/11 00:33:49;;;;;;;11.20;9.02;;;17.60;1.00;;;;;;7364812;19;20113;-64
2022/05/11 00:36:22;;;;;;;11.45;9.85;;;17.50;1.00;;;;;;7367941;19;20010;-64
2022/05/11 00:38:51;;;;;;;10.07;8.95;;;17.40;1.00;;;;;;7364326;19;20011;-65
2022/05/11 00:41:21;;;;;;;11.50;9.27;;;17.40;1.00;;;;;;7387276;19;20010;-64
2022/05/11 00:43:57;;;;;;;11.68;8.90;;;17.40;1.00;;;;;;7363787;19;20014;-65
2022/05/11 00:46:35;;;;;;;10.30;8.82;;;17.30;1.00;;;;;;7366833;19;20007;-64
2022/05/11 00:52:06;;;;;;;9.55;8.55;;;17.40;1.00;;;;;;7367503;19;20010;-64
2022/05/11 00:54:41;;;;;;;9.10;8.15;;;17.50;1.00;;;;;;7362502;19;20028;-64
2022/05/11 00:57:16;;;;;;;10.40;8.20;;;17.40;1.00;;;;;;7367986;19;20486;-65
2022/05/11 00:59:48;;;;;;;10.73;8.70;;;17.30;1.00;;;;;;7362311;19;20014;-65
2022/05/11 01:02:19;;;;;;;8.75;7.82;;;17.30;1.00;;;;;;7389227;19;20010;-64
2022/05/11 01:04:49;;;;;;;11.30;7.93;;;17.30;1.00;;;;;;7361910;19;20070;-65
2022/05/11 01:07:22;;;;;;;9.98;8.40;;;17.40;1.00;;;;;;7367182;19;20010;-64
2022/05/11 01:09:52;;;;;;;9.18;8.27;;;17.30;1.00;;;;;;7361778;19;20018;-64
2022/05/11 01:12:24;;;;;;;12.00;8.45;;;17.30;1.00;;;;;;7366884;19;20086;-64
2022/05/11 01:15:00;;;;;;;10.70;7.78;;;17.30;1.00;;;;;;7362243;19;20083;-64
2022/05/11 01:17:30;;;;;;;11.07;8.00;;;17.30;1.00;;;;;;7388714;19;20014;-64
2022/05/11 01:20:01;;;;;;;10.23;7.82;;;17.20;1.00;;;;;;7361074;19;20008;-64
2022/05/11 01:22:39;;;;;;;9.07;6.63;;;17.20;1.00;;;;;;7366992;19;20015;-64
2022/05/11 01:25:14;;;;;;;8.93;7.40;;;17.20;1.00;;;;;;7360684;19;20359;-64
2022/05/11 01:27:45;;;;;;;8.88;7.95;;;17.20;1.00;;;;;;7366188;19;20573;-65
2022/05/11 01:30:18;;;;;;;8.85;7.00;;;17.00;1.00;;;;;;7361771;19;20011;-64
2022/05/11 01:32:51;;;;;;;10.63;7.88;;;17.00;1.00;;;;;;7366358;19;20512;-65
2022/05/11 01:35:30;;;;;;;9.80;7.47;;;17.00;1.00;;;;;;7382430;19;20462;-64
2022/05/11 01:38:11;;;;;;;11.60;7.50;;;16.90;1.00;;;;;;7365786;19;20441;-64
2022/05/11 01:40:43;;;;;;;10.90;7.82;;;16.90;1.00;;;;;;7360355;19;20043;-64
2022/05/11 01:43:17;;;;;;;7.55;6.75;;;16.90;1.00;;;;;;7366746;19;20014;-64
2022/05/11 01:45:47;;;;;;;7.53;6.75;;;16.90;1.00;;;;;;7361542;19;20538;-64
2022/05/11 01:48:17;;;;;;;7.47;6.78;;;16.80;1.00;;;;;;7366248;19;20010;-64
2022/05/11 01:50:48;;;;;;;8.13;7.05;;;16.80;1.00;;;;;;7361009;19;20135;-64
2022/05/11 01:53:18;;;;;;;8.73;7.30;;;16.80;1.00;;;;;;7387377;19;20469;-65
2022/05/11 01:55:51;;;;;;;8.27;7.47;;;16.80;1.00;;;;;;7360105;19;20091;-64
2022/05/11 01:58:24;;;;;;;11.20;7.47;;;16.70;1.00;;;;;;7365660;19;20017;-65
2022/05/11 02:00:54;;;;;;;8.80;8.00;;;16.70;1.00;;;;;;7360674;19;20011;-64
2022/05/11 02:03:24;;;;;;;9.80;8.80;;;16.60;1.00;;;;;;7365783;19;20003;-64
2022/05/11 02:08:40;;;;;;;12.20;8.52;;;16.60;1.00;;;;;;7363618;19;20023;-65
2022/05/11 02:11:14;;;;;;;9.77;8.45;;;16.50;1.00;;;;;;7384310;19;20183;-64
2022/05/11 02:13:45;;;;;;;10.57;8.03;;;16.50;1.60;;;;;;7362545;19;20022;-64
2022/05/11 02:16:15;;;;;;;10.10;8.50;;;16.40;1.30;;;;;;7363002;19;20485;-64
2022/05/11 02:18:45;;;;;;;9.65;8.55;;;16.40;1.80;;;;;;7363536;19;20003;-65
2022/05/11 02:21:15;;;;;;;9.38;8.38;;;16.40;2.30;;;;;;7361771;19;20010;-64
2022/05/11 02:23:47;;;;;;;12.38;9.23;;;16.40;2.50;;;;;;7363853;19;20015;-64
2022/05/11 02:26:20;;;;;;;11.35;8.65;;;16.30;3.00;;;;;;7384205;19;20078;-64
2022/05/11 02:28:51;;;;;;;11.80;8.60;;;16.30;3.30;;;;;;7363118;19;20181;-64
2022/05/11 02:31:21;;;;;;;9.45;8.30;;;16.30;3.50;;;;;;7365424;19;20046;-64
2022/05/11 02:33:51;;;;;;;9.80;8.80;;;16.30;3.90;;;;;;7369051;19;20036;-64
2022/05/11 02:36:23;;;;;;;10.25;9.02;;;16.20;4.50;;;;;;7369883;19;20472;-64
2022/05/11 02:38:53;;;;;;;11.77;9.85;;;16.10;5.30;;;;;;7369230;19;20065;-65
2022/05/11 02:41:26;;;;;;;11.80;10.35;;;16.10;6.10;;;;;;7392774;19;20008;-64
2022/05/11 02:43:55;;;;;;;11.63;10.35;;;16.10;7.50;;;;;;7370241;19;20462;-64
2022/05/11 02:46:25;;;;;;;12.70;10.23;;;15.90;8.10;;;;;;7369219;19;20473;-64
2022/05/11 02:48:55;;;;;;;11.43;10.23;;;15.80;10.30;;;;;;7368609;19;20024;-65
2022/05/11 02:51:26;;;;;;;13.13;10.43;;;15.70;10.90;;;;;;7370609;19;20014;-64
2022/05/11 02:53:55;;;;;;;12.80;10.57;;;15.70;11.70;;;;;;7369585;19;20032;-64
2022/05/11 02:56:28;;;;;;;11.95;10.10;;;15.60;11.70;;;;;;7391209;19;20011;-64
2022/05/11 02:58:59;;;;;;;12.68;10.85;;;15.60;13.00;;;;;;7368514;19;20013;-64
2022/05/11 03:01:28;;;;;;;13.95;11.02;;;15.60;13.60;;;;;;7369899;19;20407;-64
2022/05/11 03:03:58;;;;;;;13.20;11.15;;;15.50;14.30;;;;;;7368911;19;20915;-64
2022/05/11 03:06:28;;;;;;;14.38;11.23;;;15.50;15.20;;;;;;7368745;19;20028;-64
2022/05/11 03:08:59;;;;;;;14.82;11.93;;;15.30;15.90;;;;;;7367505;19;20017;-64
2022/05/11 03:11:31;;;;;;;14.68;13.07;;;15.20;17.10;;;;;;7392958;19;20018;-64
2022/05/11 03:14:01;;;;;;;14.18;11.65;;;15.10;18.60;;;;;;7368099;19;20019;-64
2022/05/11 03:16:31;;;;;;;15.05;13.15;;;15.00;20.70;;;;;;7368763;19;20107;-64
2022/05/11 03:19:02;;;;;;;15.75;12.75;;;15.10;20.20;;;;;;7366854;19;20011;-64
2022/05/11 03:21:32;;;;;;;16.58;13.05;;;15.00;21.20;;;;;;7369999;19;20017;-64
2022/05/11 03:24:02;;;;;;;16.13;12.18;;;14.90;22.00;;;;;;7369268;19;20010;-63
2022/05/11 03:26:35;;;;;;;13.63;12.15;;;14.90;22.70;;;;;;7390521;19;20010;-65
2022/05/11 03:29:05;;;;;;;16.27;14.05;;;14.90;22.40;;;;;;7362596;19;20007;-64
2022/05/11 03:31:40;;;;;;;16.27;14.30;;;14.90;22.30;;;;;;7369128;19;20019;-64
2022/05/11 03:36:54;;;;;;;17.33;14.65;;;14.70;24.40;;;;;;7367945;19;20011;-64
2022/05/11 03:39:24;;;;;;;18.00;15.13;;;14.60;25.20;;;;;;7365036;19;20370;-64
2022/05/11 03:41:56;;;;;;;18.95;14.20;;;14.60;25.30;;;;;;7369451;19;20076;-62
2022/05/11 03:44:27;;;;;;;21.00;14.82;;;14.50;25.70;;;;;;7389466;19;20015;-64
2022/05/11 03:46:57;;;;;;;16.98;14.70;;;14.40;27.00;;;;;;7367542;19;20065;-64
2022/05/11 03:49:27;;;;;;;16.63;13.73;;;14.50;27.20;;;;;;7364853;19;20539;-64
2022/05/11 03:51:58;;;;;;;18.45;14.60;;;14.60;26.40;;;;;;7368527;19;20018;-64
2022/05/11 03:54:27;;;;;;;21.00;14.02;;;14.50;26.90;;;;;;7367601;19;20010;-64
2022/05/11 03:57:00;;;;;;;18.33;13.68;;;14.50;27.40;;;;;;7367930;19;20470;-64
2022/05/11 03:59:30;;;;;;;14.80;13.13;;;14.50;26.90;;;;;;7386692;19;20014;-65
2022/05/11 04:02:00;;;;;;;15.85;13.15;;;14.60;27.00;;;;;;7368762;19;20010;-62
2022/05/11 04:04:30;;;;;;;18.05;14.70;;;14.70;25.70;;;;;;7366806;19;20014;-64
2022/05/11 04:07:00;;;;;;;15.88;13.65;;;14.70;25.30;;;;;;7366474;19;20011;-64
2022/05/11 04:09:29;;;;;;;14.63;13.02;;;14.70;25.30;;;;;;7364949;19;20018;-64
2022/05/11 04:12:02;;;;;;;15.07;13.43;;;14.70;25.30;;;;;;7368936;19;20034;-64
2022/05/11 04:14:32;;;;;;;15.70;14.00;;;14.80;24.90;;;;;;7362596;19;20046;-63
2022/05/11 04:17:02;;;;;;;15.35;13.60;;;14.80;24.70;;;;;;7366365;19;20003;-63
2022/05/11 04:19:32;;;;;;;16.75;13.45;;;14.80;24.10;;;;;;7364172;19;20011;-65
2022/05/11 04:22:02;;;;;;;20.90;13.70;;;14.90;23.90;;;;;;7367883;19;20018;-63
2022/05/11 04:24:31;;;;;;;17.10;13.85;;;15.00;22.80;;;;;;7365150;19;20010;-63
2022/05/11 04:27:05;;;;;;;15.40;13.68;;;15.10;21.90;;;;;;7365698;19;20105;-63
2022/05/11 04:29:34;;;;;;;13.80;12.27;;;15.40;19.70;;;;;;7374314;19;20082;-63
2022/05/11 04:32:05;;;;;;;14.25;12.02;;;16.10;15.90;;;;;;7390320;19;20014;-63
2022/05/11 04:34:35;;;;;;;14.82;12.35;;;16.40;11.50;;;;;;7364924;19;20070;-63
2022/05/11 04:37:05;;;;;;;14.10;11.18;;;16.30;10.90;;;;;;7366049;19;20020;-63
2022/05/11 04:39:36;;;;;;;14.63;11.27;;;16.40;10.90;;;;;;7362711;19;20083;-64
2022/05/11 04:42:09;;;;;;;13.55;10.13;;;17.00;7.90;;;;;;7366287;19;20030;-64
2022/05/11 04:44:40;;;;;;;14.48;9.82;;;17.60;2.50;;;;;;7365032;19;20018;-64
2022/05/11 04:47:11;;;;;;;12.07;9.68;;;18.50;1.00;;;;;;7387737;19;20002;-63
2022/05/11 04:49:41;;;;;;;15.98;10.35;;;18.80;1.00;;;;;;7363465;19;20014;-64
2022/05/11 04:52:15;;;;;;;14.13;9.93;;;18.80;1.00;;;;;;7364809;19;20021;-64
2022/05/11 04:54:48;;;;;;;14.38;9.20;;;18.70;1.00;;;;;;7361361;19;20019;-64
2022/05/11 04:57:21;;;;;;;13.68;9.07;;;18.40;1.00;;;;;;7366494;19;20042;-64
2022/05/11 04:59:51;;;;;;;14.30;9.32;;;18.60;1.00;;;;;;7360926;19;20086;-64
2022/05/11 05:02:23;;;;;;;10.82;8.13;;;18.80;1.00;;;;;;7387483;19;20018;-64
2022/05/11 05:04:53;;;;;;;15.60;9.35;;;18.20;1.00;;;;;;7359349;19;20014;-64
2022/05/11 05:07:23;;;;;;;10.85;8.55;;;18.20;1.00;;;;;;7366045;19;20025;-64
2022/05/11 05:09:53;;;;;;;9.80;8.40;;;18.40;1.00;;;;;;7362678;19;20019;-64
2022/05/11 05:12:26;;;;;;;10.65;8.63;;;18.80;1.00;;;;;;7366251;19;20006;-64
2022/05/11 05:14:56;;;;;;;13.23;8.50;;;19.00;1.00;;;;;;7361552;19;20034;-64
2022/05/11 05:17:25;;;;;;;12.18;8.50;;;20.70;1.00;;;;;;7387297;19;20021;-64
2022/05/11 05:19:56;;;;;;;10.02;7.70;;;21.00;1.00;;;;;;7360667;19;20089;-64
2022/05/11 05:22:26;;;;;;;13.65;8.30;;;21.40;1.00;;;;;;7364727;19;20013;-65
2022/05/11 05:24:56;;;;;;;8.65;7.57;;;21.80;1.00;;;;;;7358634;19;20382;-65
2022/05/11 05:27:28;;;;;;;8.70;7.68;;;22.10;1.00;;;;;;7363353;19;20014;-65
2022/05/11 05:32:44;;;;;;;10.70;7.90;;;22.00;1.00;;;;;;7365151;19;20011;-64
2022/05/11 05:35:17;;;;;;;12.63;7.00;;;22.50;1.00;;;;;;7379671;19;20313;-64
2022/05/11 05:37:47;;;;;;;7.65;6.85;;;23.00;1.00;;;;;;7363536;19;20018;-64
2022/05/11 05:40:17;;;;;;;9.68;7.32;;;23.50;1.00;;;;;;7357943;19;20242;-64
2022/05/11 05:42:51;;;;;;;11.60;7.55;;;22.90;1.00;;;;;;7364119;19;20362;-64
2022/05/11 05:45:21;;;;;;;;;;;23.20;1.00;;;;;;7360240;19;20006;-64
2022/05/11 05:47:51;;;;;;;8.65;7.32;;;23.30;1.00;;;;;;7365612;19;19991;-64
2022/05/11 05:50:20;;;;;;;10.93;7.57;;;22.90;1.00;;;;;;7379757;19;20094;-64
2022/05/11 05:52:52;;;;;;;9.68;6.82;;;20.80;1.00;;;;;;7365059;19;20074;-64
2022/05/11 05:55:22;;;;;;;9.20;7.22;;;20.20;1.00;;;;;;7357303;19;20014;-64
2022/05/11 05:57:55;;;;;;;9.95;7.03;;;20.10;1.00;;;;;;7364835;19;20067;-64
2022/05/11 06:00:28;;;;;;;8.50;7.10;;;20.50;1.00;;;;;;7358906;19;20021;-64
2022/05/11 06:02:58;;;;;;;9.52;7.35;;;20.60;1.00;;;;;;7365731;19;20011;-64
2022/05/11 06:05:28;;;;;;;8.52;6.88;;;20.50;1.00;;;;;;7383721;19;20014;-64
2022/05/11 06:07:58;;;;;;;8.07;6.80;;;20.50;1.00;;;;;;7371575;19;20022;-64
2022/05/11 06:10:28;;;;;;;11.23;6.95;;;20.90;1.00;;;;;;7365413;19;20011;-64
2022/05/11 06:13:01;;;;;;;9.70;6.43;;;20.90;1.00;;;;;;7371844;19;20013;-64
2022/05/11 06:15:31;;;;;;;8.23;6.53;;;21.10;1.00;;;;;;7365030;19;20010;-65
2022/05/11 06:18:00;;;;;;;6.55;5.85;;;21.80;1.00;;;;;;7371762;19;20015;-64
2022/05/11 06:20:30;;;;;;;6.28;4.57;;;23.30;1.00;;;;;;7388071;19;20016;-63
2022/05/11 06:23:01;;;;;;;7.63;4.63;;;24.60;1.00;;;;;;7372598;19;20034;-63
2022/05/11 06:25:32;;;;;;;9.52;4.60;;;24.50;1.00;;;;;;7363290;19;20034;-63
2022/05/11 06:28:04;;;;;;;7.63;4.70;;;25.00;1.00;;;;;;7371677;19;20014;-64
2022/05/11 06:30:35;;;;;;;7.00;4.20;;;24.90;1.00;;;;;;7365630;19;20011;-64
2022/05/11 06:33:08;;;;;;;5.72;4.50;;;24.60;1.00;;;;;;7372364;19;20019;-64
2022/05/11 06:35:38;;;;;;;5.97;4.32;;;23.50;1.00;;;;;;7365106;19;20670;-64
2022/05/11 06:38:10;;;;;;;5.70;4.10;;;22.40;1.00;;;;;;7393488;19;20028;-64
2022/05/11 06:40:40;;;;;;;7.78;4.50;;;22.20;1.00;;;;;;7365642;19;20052;-64
2022/05/11 06:43:13;;;;;;;4.90;4.05;;;22.20;1.00;;;;;;7369830;19;20002;-65
2022/05/11 06:45:43;;;;;;;4.93;4.43;;;22.40;1.00;;;;;;7365106;19;20019;-64
2022/05/11 06:48:14;;;;;;;7.03;4.22;;;22.40;1.00;;;;;;7371669;19;20010;-64
2022/05/11 06:50:44;;;;;;;6.60;4.40;;;22.40;1.00;;;;;;7365384;19;20014;-64
2022/05/11 06:53:17;;;;;;;4.47;3.93;;;22.40;1.00;;;;;;7392560;19;20011;-64
2022/05/11 07:01:15;;;;;;;5.05;3.60;;;22.50;1.00;;;;;;7366646;19;20102;-64
2022/05/11 07:03:45;;;;;;;6.03;3.80;;;22.80;1.00;;;;;;7368824;19;20006;-64
2022/05/11 07:06:15;;;;;;;4.43;4.03;;;22.50;1.00;;;;;;7366113;19;20010;-64
2022/05/11 07:14:42;;;;;;;5.28;3.92;;;22.90;1.00;;;;;;7365650;19;20022;-65
2022/05/11 07:17:12;;;;;;;4.93;3.78;;;22.90;1.00;;;;;;7387319;19;20082;-64
2022/05/11 07:19:45;;;;;;;5.72;3.53;;;23.20;1.00;;;;;;7363921;19;20010;-64
2022/05/11 07:22:15;;;;;;;4.80;3.28;;;23.30;1.00;;;;;;7369579;19;20010;-65
2022/05/11 07:24:45;;;;;;;6.22;3.65;;;23.40;1.00;;;;;;7365967;19;20478;-64
2022/05/11 07:27:15;;;;;;;5.40;3.28;;;23.70;1.00;;;;;;7369378;19;20007;-65
2022/05/11 07:29:48;;;;;;;7.05;3.58;;;23.70;1.00;;;;;;7364791;19;20023;-64
2022/05/11 07:32:18;;;;;;;5.93;3.50;;;23.70;1.00;;;;;;7389335;19;20336;-64
2022/05/11 07:34:48;;;;;;;4.07;3.50;;;24.00;1.00;;;;;;7365189;19;20021;-63
2022/05/11 07:37:18;;;;;;;6.40;3.47;;;23.70;1.00;;;;;;7367751;19;20328;-63
2022/05/11 07:39:49;;;;;;;7.47;3.70;;;23.70;1.00;;;;;;7365769;19;20011;-66
2022/05/11 07:42:19;;;;;;;6.03;3.10;;;23.80;1.00;;;;;;7367210;19;20458;-64
2022/05/11 07:44:52;;;;;;;5.80;3.67;;;23.80;1.00;;;;;;7364552;19;20010;-65
2022/05/11 07:47:23;;;;;;;7.82;3.53;;;24.00;1.00;;;;;;7390864;19;20073;-64
2022/05/11 07:49:53;;;;;;;6.32;3.83;;;24.20;1.00;;;;;;7363592;19;20396;-65
2022/05/11 07:52:22;;;;;;;5.13;3.17;;;24.00;1.00;;;;;;7368192;19;20024;-64
2022/05/11 07:54:52;;;;;;;5.55;3.13;;;24.00;1.00;;;;;;7363041;19;20021;-65
2022/05/11 08:00:10;;;;;;;7.32;4.00;;;24.40;1.00;;;;;;7364389;19;20002;-65
2022/05/11 08:02:41;;;;;;;5.55;3.85;;;24.50;1.00;;;;;;7367847;19;20007;-65
2022/05/11 08:05:13;;;;;;;4.28;3.55;;;24.60;1.00;;;;;;7387173;19;20022;-65
2022/05/11 08:07:46;;;;;;;7.28;3.17;;;24.50;1.00;;;;;;7365690;19;20026;-65
2022/05/11 08:10:19;;;;;;;3.83;3.40;;;24.50;1.00;;;;;;7361491;19;20071;-65
2022/05/11 08:12:49;;;;;;;4.10;3.70;;;24.60;1.00;;;;;;7368439;19;20002;-64
2022/05/11 08:15:24;;;;;;;3.97;3.28;;;25.00;1.00;;;;;;7365250;19;20087;-65
2022/05/11 08:17:54;;;;;;;3.58;3.25;;;24.90;1.00;;;;;;7366155;19;20465;-65
2022/05/11 08:20:27;;;;;;;4.65;3.25;;;24.70;1.00;;;;;;7384725;19;20024;-64
2022/05/11 08:22:57;;;;;;;5.65;3.60;;;24.80;1.00;;;;;;7366812;19;20529;-65
2022/05/11 08:25:29;;;;;;;4.30;3.25;;;24.90;1.00;;;;;;7363179;19;20051;-64
2022/05/11 08:28:00;;;;;;;5.63;3.83;;;24.90;1.00;;;;;;7367838;19;20010;-64
2022/05/11 08:33:27;;;;;;;3.83;3.20;;;25.20;1.00;;;;;;7367868;19;20446;-64
2022/05/11 08:36:22;;;;;;;3.85;2.90;;;25.20;1.00;;;;;;7363359;19;20022;-66
2022/05/11 08:38:55;;;;;;;11.05;3.42;;;25.60;1.00;;;;;;7362883;19;20074;-65
2022/05/11 08:41:32;;;;;;;6.60;3.60;;;25.50;1.00;;;;;;7387735;19;20040;-65
2022/05/11 08:44:04;;;;;;;4.75;3.30;;;25.20;1.00;;;;;;7365598;19;20065;-64
2022/05/11 08:46:47;;;;;;;3.40;3.10;;;25.30;1.00;;;;;;7363904;19;20003;-64
2022/05/11 08:49:30;;;;;;;3.33;3.03;;;25.60;1.00;;;;;;7361776;19;20089;-65
2022/05/11 08:52:04;;;;;;;4.43;2.80;;;25.90;1.00;;;;;;7365064;19;20020;-65
2022/05/11 08:54:37;;;;;;;;;;;26.00;1.00;;;;;;7364558;19;20503;-64
2022/05/11 08:57:12;;;;;;;3.47;2.90;;;26.10;1.00;;;;;;7363647;19;20349;-64
2022/05/11 08:59:42;;;;;;;3.95;3.03;;;26.10;1.00;;;;;;7362443;19;20074;-64
2022/05/11 09:02:22;;;;;;;3.55;2.75;;;26.30;1.00;;;;;;7386256;19;20066;-64
2022/05/11 09:04:55;;;;;;;5.57;3.10;;;26.40;1.00;;;;;;7362197;19;20467;-64
2022/05/11 09:07:25;;;;;;;6.95;3.10;;;26.10;1.00;;;;;;7362943;19;20010;-64
2022/05/11 09:09:57;;;;;;;4.30;3.13;;;26.40;1.00;;;;;;7361915;19;20021;-64
2022/05/11 09:12:27;;;;;;;4.50;2.90;;;26.50;1.00;;;;;;7365157;19;20447;-66
2022/05/11 09:14:59;;;;;;;5.13;3.25;;;26.40;1.00;;;;;;7364566;19;20459;-64
2022/05/11 09:17:34;;;;;;;8.68;3.47;;;26.00;1.00;;;;;;7385362;19;20041;-64
2022/05/11 09:20:07;;;;;;;4.53;2.90;;;26.40;1.00;;;;;;7361278;19;20015;-65
2022/05/11 09:22:41;;;;;;;3.53;3.10;;;26.40;1.00;;;;;;7364316;19;20018;-63
2022/05/11 09:25:20;;;;;;;3.85;2.80;;;26.60;1.00;;;;;;7362653;19;20014;-64
2022/05/11 09:27:51;;;;;;;5.75;2.90;;;26.60;1.00;;;;;;7363810;19;20010;-65
2022/05/11 09:30:24;;;;;;;4.90;3.55;;;26.60;1.00;;;;;;7361220;19;20010;-65
2022/05/11 09:33:17;;;;;;;5.22;3.20;;;26.70;1.00;;;;;;7364517;19;20095;-63
2022/05/11 09:35:47;;;;;;;4.13;2.95;;;26.90;1.00;;;;;;7359670;19;20013;-64
2022/05/11 09:38:38;;;;;;;3.97;3.00;;;27.00;1.00;;;;;;7384702;19;20074;-64
2022/05/11 09:41:14;;;;;;;4.00;3.60;;;26.70;1.00;;;;;;7361034;19;20016;-64
2022/05/11 09:43:46;;;;;;;4.75;4.13;;;26.60;1.00;;;;;;7363554;19;20007;-64
2022/05/11 09:46:25;;;;;;;5.13;3.50;;;27.00;1.00;;;;;;7362566;19;20408;-65
2022/05/11 09:49:04;;;;;;;4.18;3.53;;;26.90;1.00;;;;;;7362482;19;20007;-65
2022/05/11 09:51:39;;;;;;;3.78;3.38;;;26.90;1.00;;;;;;7364425;19;20125;-65
2022/05/11 09:54:30;;;;;;;6.05;3.53;;;27.10;1.00;;;;;;7363165;19;20014;-64
2022/05/11 09:57:05;;;;;;;6.63;3.83;;;27.40;1.00;;;;;;7362443;19;20007;-63
2022/05/11 09:59:37;;;;;;;5.10;3.30;;;27.20;1.00;;;;;;7360293;19;20018;-65
2022/05/11 10:02:22;;;;;;;4.47;3.30;;;27.30;1.00;;;;;;7383415;19;20034;-64
2022/05/11 10:05:01;;;;;;;5.18;3.83;;;27.30;1.00;;;;;;7360746;19;20011;-64
2022/05/11 10:07:36;;;;;;;7.38;5.40;;;27.60;1.00;;;;;;7362062;19;20018;-64
2022/05/11 10:10:12;;;;;;;8.65;4.32;;;27.80;1.00;;;;;;7359636;19;20341;-64
2022/05/11 10:12:43;;;;;;;3.78;3.40;;;27.90;1.00;;;;;;7364262;19;20010;-65
2022/05/11 10:23:56;;;;;;;6.18;4.05;;;27.90;1.00;;;;;;7363232;19;20011;-65
2022/05/11 10:26:32;;;;;;;6.32;3.83;;;28.20;1.00;;;;;;7383669;19;20335;-65
2022/05/11 10:29:15;;;;;;;4.45;3.33;;;28.00;1.00;;;;;;7360543;19;20044;-65
2022/05/11 10:31:53;;;;;;;5.95;3.88;;;27.80;1.00;;;;;;7363147;19;20508;-65
2022/05/11 10:34:32;;;;;;;4.32;3.90;;;28.10;1.00;;;;;;7360980;19;20014;-64
2022/05/11 10:37:13;;;;;;;4.65;3.83;;;27.90;1.00;;;;;;7361703;19;20045;-64
2022/05/11 10:39:56;;;;;;;4.53;3.88;;;27.90;1.00;;;;;;7358928;19;20007;-64
2022/05/11 10:42:35;;;;;;;3.90;3.50;;;28.20;1.00;;;;;;7364273;19;20018;-64
2022/05/11 10:45:15;;;;;;;5.97;3.92;;;28.20;1.00;;;;;;7360103;19;20243;-64
2022/05/11 10:48:05;;;;;;;5.20;3.67;;;28.10;1.00;;;;;;7361466;19;20403;-64
2022/05/11 10:50:45;;;;;;;8.55;3.88;;;28.00;1.00;;;;;;7363513;19;20085;-65
2022/05/11 10:53:36;;;;;;;3.92;3.53;;;27.80;1.00;;;;;;7394218;19;20446;-64
2022/05/11 10:56:30;;;;;;;7.22;3.60;;;28.10;1.00;;;;;;7366209;19;20074;-65
2022/05/11 10:59:28;;;;;;;7.70;3.88;;;27.70;1.00;;;;;;7361381;19;20390;-64
2022/05/11 11:02:26;;;;;;;5.43;3.10;;;27.60;1.00;;;;;;7368669;19;20014;-65
2022/05/11 11:05:09;;;;;;;3.50;3.20;;;27.50;1.00;;;;;;7364965;19;20018;-65
2022/05/11 11:07:47;;;;;;;6.07;3.35;;;27.80;1.00;;;;;;7367809;19;20865;-65
2022/05/11 11:10:38;;;;;;;4.45;3.50;;;27.50;1.00;;;;;;7363109;19;20010;-64
2022/05/11 11:13:34;;;;;;;5.00;3.47;;;28.00;1.00;;;;;;7367541;19;20071;-65
2022/05/11 11:16:06;;;;;;;4.22;3.00;;;28.70;1.00;;;;;;7362701;19;20002;-64
2022/05/11 11:18:40;;;;;;;5.32;3.03;;;28.50;1.00;;;;;;7366415;19;20010;-65
2022/05/11 11:21:12;;;;;;;4.72;2.85;;;28.60;1.00;;;;;;7365817;19;20082;-64
2022/05/11 11:23:46;;;;;;;3.97;3.00;;;28.60;1.00;;;;;;7366059;19;20019;-64
2022/05/11 11:26:48;;;;;;;7.47;3.13;;;28.60;1.00;;;;;;7387701;19;20018;-65
2022/05/11 11:29:22;;;;;;;4.75;2.75;;;28.90;1.00;;;;;;7364248;19;20027;-64
2022/05/11 11:32:08;;;;;;;6.85;2.90;;;29.10;1.00;;;;;;7366364;19;20098;-65
2022/05/11 11:34:41;;;;;;;6.60;2.63;;;28.90;1.00;;;;;;7365674;19;20027;-65
2022/05/11 11:37:40;;;;;;;4.93;2.60;;;29.10;1.00;;;;;;7367051;19;20017;-65
2022/05/11 11:40:28;;;;;;;5.78;3.00;;;29.30;1.00;;;;;;7362934;19;20093;-64
2022/05/11 11:43:38;;;;;;;7.40;2.67;;;29.40;1.00;;;;;;7366883;19;20021;-64
2022/05/11 11:46:08;;;;;;;4.30;3.15;;;29.40;1.00;;;;;;7363197;19;20027;-64
2022/05/11 11:48:42;;;;;;;3.95;2.50;;;29.70;1.00;;;;;;7368000;19;20018;-64
2022/05/11 11:51:34;;;;;;;3.00;2.45;;;29.60;1.00;;;;;;7366549;19;20132;-65
2022/05/11 11:54:04;;;;;;;4.80;2.97;;;29.30;1.00;;;;;;7365370;19;20018;-65
2022/05/11 11:56:48;;;;;;;3.22;2.53;;;29.10;1.00;;;;;;7386313;19;20014;-63
2022/05/11 11:59:47;;;;;;;9.32;4.68;;;29.10;1.00;;;;;;7360631;19;20010;-64
2022/05/11 12:02:27;;;;;;;3.45;2.53;;;29.10;1.00;;;;;;7364334;19;20443;-64
2022/05/11 12:05:08;;;;;;;3.55;3.22;;;29.30;1.00;;;;;;7364813;19;20022;-64
2022/05/11 12:16:10;;;;;;;4.75;2.53;;;29.30;1.00;;;;;;7361698;19;20024;-64
2022/05/11 12:18:42;;;;;;;4.45;2.70;;;29.20;1.00;;;;;;7364971;19;20099;-64
2022/05/11 12:21:25;;;;;;;2.60;2.40;;;29.40;1.00;;;;;;7364221;19;20006;-65
2022/05/11 12:23:58;;;;;;;5.78;2.65;;;29.30;1.00;;;;;;7362512;19;20011;-64
2022/05/11 12:26:31;;;;;;;3.08;2.60;;;29.30;1.00;;;;;;7384816;19;20026;-65
2022/05/11 12:31:58;;;;;;;3.83;2.65;;;29.60;1.00;;;;;;7364034;19;20032;-65
2022/05/11 12:34:30;;;;;;;5.85;2.47;;;29.20;1.00;;;;;;7362678;19;20471;-65
2022/05/11 12:37:00;;;;;;;5.40;2.80;;;29.40;1.00;;;;;;7362769;19;20577;-64
2022/05/11 12:39:32;;;;;;;4.22;2.70;;;29.40;1.00;;;;;;7359591;19;20006;-65
2022/05/11 12:42:05;;;;;;;5.15;3.22;;;29.70;1.00;;;;;;7365034;19;20017;-64
2022/05/11 12:44:39;;;;;;;5.15;2.65;;;29.50;1.00;;;;;;7369332;19;20018;-65
2022/05/11 12:47:12;;;;;;;4.40;2.70;;;29.60;1.00;;;;;;7384709;19;20018;-64
2022/05/11 12:49:42;;;;;;;2.80;2.60;;;29.60;1.00;;;;;;7358948;19;20014;-66
2022/05/11 12:52:20;;;;;;;7.22;2.50;;;29.60;1.00;;;;;;7364035;19;20017;-64
2022/05/11 12:55:01;;;;;;;3.10;2.80;;;29.70;1.00;;;;;;7363211;19;20022;-64
2022/05/11 12:57:40;;;;;;;4.43;3.05;;;29.50;1.00;;;;;;7361034;19;20015;-64
2022/05/11 13:00:19;;;;;;;3.25;2.42;;;29.60;1.00;;;;;;7358921;19;20010;-64
2022/05/11 13:02:51;;;;;;;3.88;2.63;;;29.80;1.00;;;;;;7366050;19;20014;-65
2022/05/11 13:05:22;;;;;;;4.87;2.93;;;29.60;1.00;;;;;;7386364;19;20107;-64
2022/05/11 13:07:57;;;;;;;7.20;2.55;;;29.60;1.00;;;;;;7364054;19;20011;-64
2022/05/11 13:10:32;;;;;;;2.55;2.33;;;29.80;1.00;;;;;;7361270;19;20825;-64
2022/05/11 13:13:04;;;;;;;4.25;2.60;;;29.80;1.00;;;;;;7365495;19;20013;-64
2022/05/11 13:15:38;;;;;;;5.68;2.72;;;29.80;1.00;;;;;;7359252;19;20011;-66
2022/05/11 13:18:14;;;;;;;6.35;2.60;;;29.80;1.00;;;;;;7365247;19;20006;-63
2022/05/11 13:20:47;;;;;;;4.03;2.38;;;30.00;1.00;;;;;;7360472;19;20014;-64
2022/05/11 13:23:33;;;;;;;4.85;2.25;;;30.00;1.00;;;;;;7387095;19;20309;-65
2022/05/11 13:26:05;;;;;;;6.35;2.45;;;30.10;1.00;;;;;;7360890;19;20384;-65
2022/05/11 13:28:38;;;;;;;2.88;2.28;;;29.80;1.00;;;;;;7363965;19;20021;-65
2022/05/11 13:31:27;;;;;;;2.53;1.98;;;29.80;1.00;;;;;;7361822;19;20105;-64
2022/05/11 13:34:01;;;;;;;4.75;3.22;;;29.70;1.00;;;;;;7363158;19;20035;-65
2022/05/11 13:36:41;;;;;;;2.85;2.55;;;29.70;1.00;;;;;;7362117;19;20105;-64
2022/05/11 13:39:30;;;;;;;3.97;2.15;;;29.90;1.00;;;;;;7362436;19;20021;-65
2022/05/11 13:42:03;;;;;;;2.60;2.13;;;30.20;1.00;;;;;;7364991;19;20479;-64
2022/05/11 13:44:39;;;;;;;2.63;2.25;;;29.90;1.00;;;;;;7385809;19;20015;-65
2022/05/11 13:50:17;;;;;;;5.53;2.60;;;30.20;1.00;;;;;;7359760;19;20006;-64
2022/05/11 13:52:56;;;;;;;4.18;2.50;;;30.10;1.00;;;;;;7364263;19;20082;-64
2022/05/11 13:55:32;;;;;;;3.40;2.25;;;29.90;1.00;;;;;;7361896;19;20045;-64
2022/05/11 13:58:23;;;;;;;3.65;2.85;;;30.10;1.00;;;;;;7364137;19;20098;-65
2022/05/11 14:00:57;;;;;;;3.53;2.38;;;29.70;1.00;;;;;;7360264;19;20032;-65
2022/05/11 14:03:32;;;;;;;2.53;2.33;;;30.00;1.00;;;;;;7365537;19;20467;-64
2022/05/11 14:06:07;;;;;;;3.67;2.22;;;30.00;1.00;;;;;;7360174;19;20025;-64
2022/05/11 14:08:40;;;;;;;2.60;2.40;;;30.20;1.00;;;;;;7362040;19;20512;-65
2022/05/11 14:11:16;;;;;;;3.70;2.20;;;30.00;1.00;;;;;;7382525;19;20477;-65
2022/05/11 14:13:46;;;;;;;3.72;2.50;;;30.20;1.00;;;;;;7358926;19;20231;-66
2022/05/11 14:16:22;;;;;;;3.22;2.47;;;30.50;1.00;;;;;;7361104;19;20010;-65